createdAt,value
2022-08-08T00:00:54.155Z,13.22
2022-08-08T00:01:08.668Z,13.21
2022-08-08T00:02:29.988Z,13.18
2022-08-08T00:03:13.243Z,13.12
2022-08-08T00:04:02.273Z,13.07
2022-08-08T00:05:01.201Z,13.03
2022-08-08T00:06:04.022Z,12.99
2022-08-08T00:07:01.147Z,12.95
2022-08-08T00:08:02.152Z,12.89
2022-08-08T00:09:01.133Z,12.87
2022-08-08T00:10:01.138Z,12.82
2022-08-08T00:11:01.102Z,12.81
2022-08-08T00:12:07.231Z,12.75
2022-08-08T00:13:02.069Z,12.71
2022-08-08T00:14:14.896Z,12.69
2022-08-08T00:15:04.986Z,12.69
2022-08-08T00:16:01.044Z,12.67
2022-08-08T00:17:01.024Z,12.70
2022-08-08T00:18:04.152Z,12.71
2022-08-08T00:19:00.995Z,12.74
2022-08-08T00:20:00.971Z,12.75
2022-08-08T00:21:01.073Z,12.71
2022-08-08T00:22:00.966Z,12.71
2022-08-08T00:23:00.946Z,12.70
2022-08-08T00:24:00.923Z,12.69
2022-08-08T00:25:00.910Z,12.66
2022-08-08T00:26:00.916Z,12.66
2022-08-08T00:27:00.984Z,12.64
2022-08-08T00:28:00.885Z,12.66
2022-08-08T00:29:00.866Z,12.69
2022-08-08T00:30:00.843Z,12.69
2022-08-08T00:32:20.614Z,12.69
2022-08-08T00:32:20.751Z,12.70
2022-08-08T00:33:01.795Z,12.67
2022-08-08T00:34:18.554Z,12.66
2022-08-08T00:35:04.107Z,12.63
2022-08-08T00:36:00.776Z,12.62
2022-08-08T00:37:03.786Z,12.57
2022-08-08T00:38:02.946Z,12.54
2022-08-08T00:39:00.777Z,12.51
2022-08-08T00:41:09.860Z,12.48
2022-08-08T00:41:12.951Z,12.48
2022-08-08T00:42:08.842Z,12.48
2022-08-08T00:43:09.558Z,12.48
2022-08-08T00:44:01.713Z,12.44
2022-08-08T00:45:00.631Z,12.44
2022-08-08T00:46:00.633Z,12.42
2022-08-08T00:47:00.600Z,12.34
2022-08-08T00:48:05.083Z,12.29
2022-08-08T00:49:01.703Z,12.24
2022-08-08T00:50:00.568Z,12.16
2022-08-08T00:51:00.563Z,12.13
2022-08-08T00:52:00.540Z,12.09
2022-08-08T00:53:00.616Z,12.08
2022-08-08T00:54:13.459Z,12.08
2022-08-08T00:55:01.612Z,12.02
2022-08-08T00:56:00.496Z,11.99
2022-08-08T00:57:00.478Z,12.02
2022-08-08T00:58:00.453Z,12.01
2022-08-08T00:59:00.446Z,11.99
2022-08-08T01:00:00.431Z,11.97
2022-08-08T01:01:00.583Z,11.96
2022-08-08T01:02:01.425Z,11.96
2022-08-08T01:03:58.790Z,11.94
2022-08-08T01:04:04.449Z,11.90
2022-08-08T01:05:00.369Z,11.86
2022-08-08T01:06:02.285Z,11.83
2022-08-08T01:07:01.495Z,11.80
2022-08-08T01:08:00.317Z,11.78
2022-08-08T01:09:00.295Z,11.75
2022-08-08T01:10:01.308Z,11.72
2022-08-08T01:11:01.291Z,11.74
2022-08-08T01:12:00.267Z,11.72
2022-08-08T01:13:00.248Z,11.72
2022-08-08T01:14:00.253Z,11.72
2022-08-08T01:15:00.605Z,11.71
2022-08-08T01:16:00.221Z,11.67
2022-08-08T01:17:00.234Z,11.65
2022-08-08T01:18:02.289Z,11.64
2022-08-08T01:19:02.682Z,11.59
2022-08-08T01:20:03.084Z,11.57
2022-08-08T01:21:00.139Z,11.61
2022-08-08T01:22:13.045Z,11.59
2022-08-08T01:23:01.219Z,11.61
2022-08-08T01:24:06.669Z,11.57
2022-08-08T01:25:01.096Z,11.56
2022-08-08T01:26:02.222Z,11.52
2022-08-08T01:27:01.051Z,11.46
2022-08-08T01:28:02.093Z,11.44
2022-08-08T01:29:00.857Z,11.44
2022-08-08T01:30:03.341Z,11.47
2022-08-08T01:31:00.019Z,11.53
2022-08-08T01:32:16.268Z,11.57
2022-08-08T01:33:00.973Z,11.61
2022-08-08T01:34:01.232Z,11.64
2022-08-08T01:34:59.952Z,11.67
2022-08-08T01:36:01.193Z,11.67
2022-08-08T01:36:59.928Z,11.68
2022-08-08T01:37:59.920Z,11.67
2022-08-08T01:38:59.985Z,11.61
2022-08-08T01:39:59.919Z,11.59
2022-08-08T01:40:59.865Z,11.57
2022-08-08T01:41:59.946Z,11.57
2022-08-08T01:42:59.850Z,11.57
2022-08-08T01:43:59.826Z,11.53
2022-08-08T01:45:00.407Z,11.53
2022-08-08T01:45:59.819Z,11.53
2022-08-08T01:46:59.786Z,11.49
2022-08-08T01:48:16.346Z,11.49
2022-08-08T01:49:00.770Z,11.47
2022-08-08T01:49:59.747Z,11.50
2022-08-08T01:50:59.852Z,11.52
2022-08-08T01:52:41.613Z,11.49
2022-08-08T01:54:05.846Z,11.47
2022-08-08T01:55:15.109Z,11.38
2022-08-08T01:55:26.006Z,11.35
2022-08-08T01:56:28.418Z,11.31
2022-08-08T01:57:00.664Z,11.32
2022-08-08T01:58:12.408Z,11.32
2022-08-08T01:59:02.969Z,11.31
2022-08-08T02:00:02.263Z,11.27
2022-08-08T02:00:59.612Z,11.17
2022-08-08T02:02:04.921Z,11.03
2022-08-08T02:03:00.563Z,10.91
2022-08-08T02:03:59.609Z,10.80
2022-08-08T02:04:59.557Z,10.77
2022-08-08T02:05:59.532Z,10.74
2022-08-08T02:06:59.540Z,10.68
2022-08-08T02:07:59.537Z,10.60
2022-08-08T02:08:59.498Z,10.59
2022-08-08T02:10:01.555Z,10.58
2022-08-08T02:10:59.465Z,10.58
2022-08-08T02:12:00.852Z,10.59
2022-08-08T02:12:59.457Z,10.60
2022-08-08T02:13:59.536Z,10.59
2022-08-08T02:14:59.656Z,10.59
2022-08-08T02:15:59.410Z,10.58
2022-08-08T02:16:59.391Z,10.56
2022-08-08T02:17:59.369Z,10.55
2022-08-08T02:18:59.438Z,10.55
2022-08-08T02:20:09.447Z,10.55
2022-08-08T02:21:08.331Z,10.58
2022-08-08T02:22:00.332Z,10.58
2022-08-08T02:22:59.298Z,10.62
2022-08-08T02:23:59.301Z,10.62
2022-08-08T02:24:59.284Z,10.60
2022-08-08T02:26:00.583Z,10.56
2022-08-08T02:27:00.967Z,10.56
2022-08-08T02:27:59.237Z,10.51
2022-08-08T02:28:59.219Z,10.44
2022-08-08T02:29:59.223Z,10.42
2022-08-08T02:31:02.108Z,10.37
2022-08-08T02:32:04.649Z,10.36
2022-08-08T02:32:59.160Z,10.37
2022-08-08T02:34:08.761Z,10.36
2022-08-08T02:35:11.171Z,10.37
2022-08-08T02:36:05.040Z,10.36
2022-08-08T02:37:00.128Z,10.34
2022-08-08T02:37:59.143Z,10.28
2022-08-08T02:39:01.347Z,10.30
2022-08-08T02:40:00.107Z,10.26
2022-08-08T02:40:59.057Z,10.25
2022-08-08T02:42:05.461Z,10.25
2022-08-08T02:44:35.807Z,10.24
2022-08-08T02:44:38.904Z,10.24
2022-08-08T02:45:00.048Z,10.19
2022-08-08T02:45:58.994Z,10.17
2022-08-08T02:46:58.974Z,10.12
2022-08-08T02:47:58.979Z,10.12
2022-08-08T02:48:58.967Z,10.10
2022-08-08T02:49:58.937Z,10.12
2022-08-08T02:50:58.937Z,10.14
2022-08-08T02:52:01.237Z,10.14
2022-08-08T02:52:59.897Z,10.12
2022-08-08T02:53:58.900Z,10.12
2022-08-08T02:54:58.867Z,10.12
2022-08-08T02:56:00.085Z,10.14
2022-08-08T02:56:58.860Z,10.17
2022-08-08T02:57:58.827Z,10.17
2022-08-08T02:58:58.855Z,10.18
2022-08-08T03:00:26.363Z,10.18
2022-08-08T03:00:59.850Z,10.17
2022-08-08T03:01:58.841Z,10.18
2022-08-08T03:02:58.758Z,10.17
2022-08-08T03:05:03.478Z,10.17
2022-08-08T03:05:04.802Z,10.17
2022-08-08T03:05:59.721Z,10.21
2022-08-08T03:06:58.721Z,10.24
2022-08-08T03:07:59.305Z,10.22
2022-08-08T03:08:58.671Z,10.25
2022-08-08T03:09:58.684Z,10.26
2022-08-08T03:10:58.671Z,10.25
2022-08-08T03:12:02.877Z,10.25
2022-08-08T03:13:02.360Z,10.24
2022-08-08T03:16:00.785Z,10.22
2022-08-08T03:16:00.905Z,10.22
2022-08-08T03:16:05.260Z,10.21
2022-08-08T03:16:59.572Z,10.22
2022-08-08T03:18:04.518Z,10.21
2022-08-08T03:18:59.557Z,10.21
2022-08-08T03:19:58.534Z,10.22
2022-08-08T03:20:59.515Z,10.25
2022-08-08T03:21:59.991Z,10.24
2022-08-08T03:23:00.635Z,10.22
2022-08-08T03:24:02.055Z,10.19
2022-08-08T03:24:58.478Z,10.14
2022-08-08T03:25:58.453Z,10.12
2022-08-08T03:26:58.477Z,10.06
2022-08-08T03:27:58.457Z,9.99
2022-08-08T03:28:58.406Z,9.86
2022-08-08T03:29:58.410Z,9.83
2022-08-08T03:30:58.377Z,9.76
2022-08-08T03:32:05.979Z,9.71
2022-08-08T03:33:07.630Z,9.71
2022-08-08T03:34:01.089Z,9.71
2022-08-08T03:34:58.357Z,9.73
2022-08-08T03:35:58.331Z,9.71
2022-08-08T03:36:58.313Z,9.73
2022-08-08T03:38:52.605Z,9.76
2022-08-08T03:39:14.696Z,9.81
2022-08-08T03:40:00.548Z,9.85
2022-08-08T03:40:58.368Z,9.89
2022-08-08T03:42:27.725Z,9.91
2022-08-08T03:43:16.832Z,9.91
2022-08-08T03:43:59.595Z,9.91
2022-08-08T03:44:58.634Z,9.82
2022-08-08T03:46:06.367Z,9.76
2022-08-08T03:46:59.175Z,9.66
2022-08-08T03:47:58.150Z,9.56
2022-08-08T03:49:56.374Z,9.45
2022-08-08T03:50:02.308Z,9.38
2022-08-08T03:50:58.125Z,9.34
2022-08-08T03:51:58.103Z,9.32
2022-08-08T03:52:58.513Z,9.32
2022-08-08T03:53:58.088Z,9.30
2022-08-08T03:55:09.544Z,9.30
2022-08-08T03:56:04.434Z,9.31
2022-08-08T03:56:59.047Z,9.42
2022-08-08T03:58:31.360Z,9.52
2022-08-08T03:58:59.283Z,9.57
2022-08-08T04:00:08.069Z,9.61
2022-08-08T04:01:20.993Z,9.60
2022-08-08T04:02:31.804Z,9.56
2022-08-08T04:02:59.681Z,9.52
2022-08-08T04:04:02.016Z,9.49
2022-08-08T04:04:57.939Z,9.48
2022-08-08T04:05:57.937Z,9.49
2022-08-08T04:07:00.891Z,9.50
2022-08-08T04:07:58.200Z,9.50
2022-08-08T04:08:57.884Z,9.46
2022-08-08T04:10:02.925Z,9.46
2022-08-08T04:10:59.776Z,9.48
2022-08-08T04:12:00.816Z,9.48
2022-08-08T04:12:57.818Z,9.50
2022-08-08T04:14:04.387Z,9.53
2022-08-08T04:14:58.788Z,9.53
2022-08-08T04:16:05.508Z,9.60
2022-08-08T04:16:58.904Z,9.61
2022-08-08T04:17:59.403Z,9.63
2022-08-08T04:18:57.751Z,9.66
2022-08-08T04:19:57.711Z,9.66
2022-08-08T04:20:57.715Z,9.67
2022-08-08T04:21:58.226Z,9.73
2022-08-08T04:22:58.303Z,9.79
2022-08-08T04:24:05.721Z,9.85
2022-08-08T04:24:58.653Z,9.81
2022-08-08T04:25:57.647Z,9.79
2022-08-08T04:26:58.673Z,9.76
2022-08-08T04:28:10.680Z,9.71
2022-08-08T04:28:58.616Z,9.63
2022-08-08T04:30:17.243Z,9.61
2022-08-08T04:30:58.588Z,9.60
2022-08-08T04:32:00.018Z,9.60
2022-08-08T04:32:57.544Z,9.58
2022-08-08T04:33:57.538Z,9.53
2022-08-08T04:34:58.709Z,9.53
2022-08-08T04:35:57.508Z,9.52
2022-08-08T04:36:57.508Z,9.53
2022-08-08T04:37:57.474Z,9.58
2022-08-08T04:39:47.927Z,9.64
2022-08-08T04:40:06.360Z,9.67
2022-08-08T04:42:11.378Z,9.78
2022-08-08T04:43:10.477Z,9.81
2022-08-08T04:44:09.418Z,9.83
2022-08-08T04:45:09.402Z,9.85
2022-08-08T04:46:09.403Z,9.88
2022-08-08T04:47:11.916Z,9.88
2022-08-08T04:48:09.362Z,9.88
2022-08-08T04:49:11.410Z,9.86
2022-08-08T04:50:09.326Z,9.89
2022-08-08T04:51:10.332Z,9.89
2022-08-08T04:52:09.317Z,9.94
2022-08-08T04:53:14.012Z,9.97
2022-08-08T04:54:38.312Z,10.03
2022-08-08T04:55:10.439Z,10.10
2022-08-08T04:56:09.261Z,10.21
2022-08-08T04:57:09.237Z,10.26
2022-08-08T04:58:11.184Z,10.32
2022-08-08T04:59:09.208Z,10.36
2022-08-08T05:00:10.146Z,10.39
2022-08-08T05:01:11.305Z,10.43
2022-08-08T05:02:09.264Z,10.47
2022-08-08T05:03:12.691Z,10.53
2022-08-08T05:04:12.853Z,10.59
2022-08-08T05:05:15.916Z,10.63
2022-08-08T05:06:12.512Z,10.63
2022-08-08T05:07:10.107Z,10.66
2022-08-08T05:08:09.090Z,10.73
2022-08-08T05:09:09.176Z,10.74
2022-08-08T05:10:12.765Z,10.76
2022-08-08T05:11:09.175Z,10.78
2022-08-08T05:12:09.271Z,10.80
2022-08-08T05:13:17.531Z,10.84
2022-08-08T05:14:12.296Z,10.86
2022-08-08T05:15:09.003Z,10.91
2022-08-08T05:16:50.925Z,10.92
2022-08-08T05:17:10.984Z,10.98
2022-08-08T05:18:08.963Z,11.02
2022-08-08T05:19:08.965Z,11.09
2022-08-08T05:20:15.005Z,11.11
2022-08-08T05:21:09.924Z,11.16
2022-08-08T05:22:09.029Z,11.21
2022-08-08T05:23:08.897Z,11.28
2022-08-08T05:24:08.875Z,11.32
2022-08-08T05:25:08.881Z,11.38
2022-08-08T05:26:08.861Z,11.43
2022-08-08T05:27:09.996Z,11.50
2022-08-08T05:28:08.827Z,11.53
2022-08-08T05:29:08.831Z,11.59
2022-08-08T05:30:08.788Z,11.65
2022-08-08T05:31:19.455Z,11.70
2022-08-08T05:32:09.783Z,11.75
2022-08-08T05:33:08.758Z,11.78
2022-08-08T05:34:08.752Z,11.83
2022-08-08T05:35:09.709Z,11.87
2022-08-08T05:36:08.709Z,11.93
2022-08-08T05:37:17.051Z,11.97
2022-08-08T05:38:31.469Z,12.02
2022-08-08T05:39:09.786Z,12.04
2022-08-08T05:40:09.391Z,12.08
2022-08-08T05:41:08.650Z,12.12
2022-08-08T05:42:08.631Z,12.19
2022-08-08T05:43:38.871Z,12.23
2022-08-08T05:44:09.615Z,12.29
2022-08-08T05:45:10.222Z,12.34
2022-08-08T05:46:09.599Z,12.44
2022-08-08T05:47:08.569Z,12.51
2022-08-08T05:48:09.917Z,12.56
2022-08-08T05:49:10.985Z,12.63
2022-08-08T05:50:08.522Z,12.70
2022-08-08T05:51:14.708Z,12.78
2022-08-08T05:52:09.594Z,12.84
2022-08-08T05:53:55.402Z,12.93
2022-08-08T05:54:27.677Z,13.00
2022-08-08T05:55:09.790Z,13.06
2022-08-08T05:56:14.662Z,13.14
2022-08-08T05:57:09.448Z,13.21
2022-08-08T05:58:17.727Z,13.33
2022-08-08T05:59:12.437Z,13.44
2022-08-08T06:00:23.580Z,13.55
2022-08-08T06:01:09.392Z,13.63
2022-08-08T06:02:08.356Z,13.71
2022-08-08T06:03:08.411Z,13.84
2022-08-08T06:04:13.583Z,13.92
2022-08-08T06:05:32.960Z,14.01
2022-08-08T06:06:09.312Z,14.12
2022-08-08T06:07:08.290Z,14.20
2022-08-08T06:08:09.908Z,14.31
2022-08-08T06:09:59.881Z,14.38
2022-08-08T06:10:10.807Z,14.47
2022-08-08T06:11:08.341Z,14.53
2022-08-08T06:12:08.234Z,14.60
2022-08-08T06:13:08.246Z,14.68
2022-08-08T06:14:12.598Z,14.78
2022-08-08T06:15:08.181Z,14.87
2022-08-08T06:16:08.192Z,14.95
2022-08-08T06:17:08.173Z,15.05
2022-08-08T06:18:20.220Z,15.15
2022-08-08T06:19:11.231Z,15.26
2022-08-08T06:20:11.660Z,15.35
2022-08-08T06:21:28.495Z,15.43
2022-08-08T06:23:09.829Z,15.67
2022-08-08T06:24:13.803Z,15.76
2022-08-08T06:25:10.366Z,15.86
2022-08-08T06:26:38.169Z,15.99
2022-08-08T06:27:09.305Z,16.15
2022-08-08T06:28:08.028Z,16.22
2022-08-08T06:29:26.803Z,16.33
2022-08-08T06:30:11.770Z,16.42
2022-08-08T06:31:09.522Z,16.50
2022-08-08T06:32:11.200Z,16.60
2022-08-08T06:33:09.289Z,16.73
2022-08-08T06:34:28.025Z,16.83
2022-08-08T06:36:04.379Z,16.86
2022-08-08T06:36:10.238Z,16.96
2022-08-08T06:37:24.496Z,17.08
2022-08-08T06:38:09.211Z,17.13
2022-08-08T06:39:08.911Z,17.13
2022-08-08T06:40:14.269Z,17.11
2022-08-08T06:41:13.152Z,17.14
2022-08-08T06:42:07.834Z,17.25
2022-08-08T06:43:09.548Z,17.38
2022-08-08T06:44:07.781Z,17.47
2022-08-08T06:45:08.579Z,17.53
2022-08-08T06:46:09.182Z,17.66
2022-08-08T06:47:07.750Z,17.82
2022-08-08T06:48:08.623Z,17.95
2022-08-08T06:49:07.741Z,18.07
2022-08-08T06:50:07.710Z,18.21
2022-08-08T06:51:08.777Z,18.34
2022-08-08T06:52:07.687Z,18.43
2022-08-08T06:53:14.213Z,18.36
2022-08-08T06:54:08.659Z,18.28
2022-08-08T06:55:07.634Z,18.25
2022-08-08T06:56:07.616Z,18.10
2022-08-08T06:57:08.708Z,18.10
2022-08-08T06:58:07.596Z,18.27
2022-08-08T06:59:09.621Z,18.44
2022-08-08T07:00:11.497Z,18.62
2022-08-08T07:01:52.322Z,18.70
2022-08-08T07:02:24.378Z,18.86
2022-08-08T07:03:08.613Z,19.02
2022-08-08T07:04:38.922Z,19.23
2022-08-08T07:05:11.910Z,19.36
2022-08-08T07:06:08.501Z,19.48
2022-08-08T07:07:11.570Z,19.50
2022-08-08T07:08:08.815Z,19.55
2022-08-08T07:09:07.494Z,19.53
2022-08-08T07:10:08.548Z,19.53
2022-08-08T07:11:07.668Z,19.48
2022-08-08T07:12:07.414Z,19.57
2022-08-08T07:13:07.391Z,19.73
2022-08-08T07:14:07.392Z,19.84
2022-08-08T07:15:15.433Z,20.02
2022-08-08T07:16:11.806Z,20.02
2022-08-08T07:17:09.257Z,19.80
2022-08-08T07:18:35.621Z,19.79
2022-08-08T07:19:08.324Z,19.65
2022-08-08T07:20:07.317Z,19.73
2022-08-08T07:21:18.710Z,19.86
2022-08-08T07:22:12.190Z,20.05
2022-08-08T07:23:08.255Z,20.21
2022-08-08T07:24:07.244Z,20.39
2022-08-08T07:25:07.242Z,20.56
2022-08-08T07:26:07.215Z,20.77
2022-08-08T07:27:11.206Z,20.86
2022-08-08T07:28:07.999Z,20.98
2022-08-08T07:29:11.368Z,21.09
2022-08-08T07:30:13.711Z,21.05
2022-08-08T07:31:08.149Z,20.96
2022-08-08T07:32:07.155Z,20.90
2022-08-08T07:33:07.132Z,21.02
2022-08-08T07:34:08.637Z,21.11
2022-08-08T07:35:08.650Z,21.19
2022-08-08T07:36:07.079Z,21.09
2022-08-08T07:37:11.733Z,21.05
2022-08-08T07:38:10.281Z,21.05
2022-08-08T07:39:08.101Z,21.23
2022-08-08T07:40:08.076Z,21.36
2022-08-08T07:41:07.011Z,21.60
2022-08-08T07:42:08.015Z,21.82
2022-08-08T07:43:08.819Z,21.95
2022-08-08T07:44:10.513Z,22.09
2022-08-08T07:45:07.967Z,22.14
2022-08-08T07:46:23.529Z,22.16
2022-08-08T07:47:07.947Z,22.31
2022-08-08T07:48:06.936Z,22.47
2022-08-08T07:49:06.905Z,22.25
2022-08-08T07:50:06.894Z,21.85
2022-08-08T07:51:08.925Z,21.81
2022-08-08T07:52:07.880Z,21.75
2022-08-08T07:53:07.847Z,21.79
2022-08-08T07:54:06.960Z,21.51
2022-08-08T07:55:06.827Z,21.50
2022-08-08T07:56:06.807Z,21.75
2022-08-08T07:57:09.063Z,21.91
2022-08-08T07:58:06.787Z,22.07
2022-08-08T07:59:06.782Z,22.22
2022-08-08T08:00:13.207Z,22.49
2022-08-08T08:01:08.284Z,22.77
2022-08-08T08:02:35.252Z,22.56
2022-08-08T08:03:12.379Z,22.62
2022-08-08T08:04:07.700Z,22.62
2022-08-08T08:05:15.143Z,22.86
2022-08-08T08:06:07.695Z,23.22
2022-08-08T08:07:06.652Z,23.58
2022-08-08T08:08:06.660Z,23.79
2022-08-08T08:09:06.715Z,23.95
2022-08-08T08:10:06.623Z,23.68
2022-08-08T08:11:06.618Z,23.57
2022-08-08T08:12:06.607Z,23.80
2022-08-08T08:13:06.574Z,24.10
2022-08-08T08:14:09.749Z,23.92
2022-08-08T08:15:06.545Z,23.75
2022-08-08T08:16:06.564Z,23.86
2022-08-08T08:17:06.531Z,23.94
2022-08-08T08:18:06.506Z,24.05
2022-08-08T08:19:07.508Z,24.02
2022-08-08T08:20:06.498Z,23.58
2022-08-08T08:21:13.362Z,23.47
2022-08-08T08:22:07.840Z,23.43
2022-08-08T08:23:06.438Z,23.23
2022-08-08T08:24:06.428Z,22.65
2022-08-08T08:25:07.415Z,22.57
2022-08-08T08:26:06.409Z,22.64
2022-08-08T08:27:09.421Z,22.92
2022-08-08T08:28:09.273Z,23.29
2022-08-08T08:29:06.361Z,23.31
2022-08-08T08:30:07.371Z,23.50
2022-08-08T08:31:06.331Z,23.72
2022-08-08T08:32:06.351Z,23.82
2022-08-08T08:33:06.329Z,23.79
2022-08-08T08:34:06.301Z,23.76
2022-08-08T08:35:06.507Z,23.90
2022-08-08T08:36:18.587Z,24.14
2022-08-08T08:37:07.839Z,23.70
2022-08-08T08:38:17.379Z,23.62
2022-08-08T08:39:07.515Z,23.86
2022-08-08T08:40:07.249Z,24.34
2022-08-08T08:41:16.853Z,24.69
2022-08-08T08:42:07.200Z,25.15
2022-08-08T08:43:11.580Z,25.22
2022-08-08T08:44:15.586Z,25.25
2022-08-08T08:45:21.078Z,25.56
2022-08-08T08:46:07.137Z,25.56
2022-08-08T08:47:06.593Z,25.30
2022-08-08T08:48:06.133Z,25.38
2022-08-08T08:49:06.097Z,25.68
2022-08-08T08:50:06.102Z,25.84
2022-08-08T08:51:07.069Z,25.86
2022-08-08T08:52:06.059Z,25.94
2022-08-08T08:53:27.251Z,25.56
2022-08-08T08:54:07.044Z,25.44
2022-08-08T08:55:06.012Z,25.56
2022-08-08T08:56:06.001Z,25.09
2022-08-08T08:57:15.368Z,24.91
2022-08-08T08:58:07.001Z,25.05
2022-08-08T08:59:05.966Z,25.20
2022-08-08T09:00:14.712Z,25.43
2022-08-08T09:01:09.634Z,25.68
2022-08-08T09:02:05.999Z,25.68
2022-08-08T09:03:05.905Z,25.61
2022-08-08T09:04:05.908Z,25.83
2022-08-08T09:05:05.889Z,25.54
2022-08-08T09:06:19.304Z,25.80
2022-08-08T09:07:12.913Z,25.93
2022-08-08T09:08:12.969Z,26.31
2022-08-08T09:09:07.442Z,26.17
2022-08-08T09:10:09.054Z,25.50
2022-08-08T09:11:06.811Z,24.92
2022-08-08T09:12:07.581Z,24.98
2022-08-08T09:13:05.768Z,25.07
2022-08-08T09:14:05.772Z,25.00
2022-08-08T09:15:06.139Z,25.17
2022-08-08T09:16:05.730Z,25.53
2022-08-08T09:17:12.786Z,25.38
2022-08-08T09:18:06.709Z,25.72
2022-08-08T09:19:05.697Z,26.06
2022-08-08T09:22:01.475Z,26.42
2022-08-08T09:22:02.442Z,26.83
2022-08-08T09:22:06.779Z,27.21
2022-08-08T09:23:05.632Z,27.69
2022-08-08T09:24:06.625Z,27.64
2022-08-08T09:25:05.738Z,27.47
2022-08-08T09:26:05.604Z,27.10
2022-08-08T09:27:05.588Z,26.79
2022-08-08T09:28:06.002Z,26.22
2022-08-08T09:29:08.417Z,26.21
2022-08-08T09:30:05.569Z,26.43
2022-08-08T09:31:12.579Z,26.84
2022-08-08T09:32:06.514Z,27.26
2022-08-08T09:33:20.784Z,27.61
2022-08-08T09:34:30.101Z,28.01
2022-08-08T09:35:08.398Z,28.48
2022-08-08T09:36:05.485Z,28.85
2022-08-08T09:37:57.164Z,27.84
2022-08-08T09:38:17.511Z,26.84
2022-08-08T09:39:15.420Z,26.98
2022-08-08T09:40:08.698Z,27.31
2022-08-08T09:41:06.578Z,27.42
2022-08-08T09:42:21.128Z,27.29
2022-08-08T09:43:16.397Z,27.21
2022-08-08T09:44:13.128Z,27.50
2022-08-08T09:45:08.087Z,27.99
2022-08-08T09:46:10.955Z,28.46
2022-08-08T09:48:02.355Z,28.84
2022-08-08T09:48:16.076Z,27.77
2022-08-08T09:49:41.406Z,27.29
2022-08-08T09:50:11.547Z,26.95
2022-08-08T09:51:06.255Z,27.10
2022-08-08T09:52:08.129Z,27.19
2022-08-08T09:53:13.953Z,27.24
2022-08-08T09:54:12.885Z,26.95
2022-08-08T09:55:06.230Z,26.74
2022-08-08T09:56:06.905Z,26.74
2022-08-08T09:57:05.187Z,26.89
2022-08-08T09:58:06.299Z,26.95
2022-08-08T09:59:31.963Z,27.43
2022-08-08T10:00:34.045Z,27.98
2022-08-08T10:01:14.503Z,27.32
2022-08-08T10:02:12.382Z,26.86
2022-08-08T10:03:06.121Z,27.20
2022-08-08T10:04:05.454Z,26.80
2022-08-08T10:05:14.276Z,26.86
2022-08-08T10:06:06.090Z,27.17
2022-08-08T10:07:07.463Z,26.81
2022-08-08T10:08:05.054Z,27.04
2022-08-08T10:09:08.319Z,27.02
2022-08-08T10:10:06.821Z,26.98
2022-08-08T10:12:22.503Z,26.47
2022-08-08T10:12:27.442Z,26.20
2022-08-08T10:13:14.765Z,26.01
2022-08-08T10:14:06.437Z,26.74
2022-08-08T10:15:17.428Z,27.02
2022-08-08T10:16:05.968Z,27.32
2022-08-08T10:17:30.269Z,27.53
2022-08-08T10:18:10.558Z,27.42
2022-08-08T10:19:05.900Z,27.29
2022-08-08T10:20:04.905Z,26.76
2022-08-08T10:21:22.655Z,26.25
2022-08-08T10:22:05.872Z,26.37
2022-08-08T10:23:04.838Z,26.55
2022-08-08T10:24:04.837Z,26.52
2022-08-08T10:25:05.885Z,26.36
2022-08-08T10:26:04.799Z,26.40
2022-08-08T10:27:05.806Z,26.65
2022-08-08T10:28:05.794Z,27.14
2022-08-08T10:29:04.761Z,27.23
2022-08-08T10:30:04.916Z,26.80
2022-08-08T10:31:04.731Z,26.22
2022-08-08T10:32:04.722Z,26.06
2022-08-08T10:33:04.728Z,27.05
2022-08-08T10:34:18.466Z,27.95
2022-08-08T10:35:11.587Z,28.44
2022-08-08T10:36:19.983Z,27.85
2022-08-08T10:37:05.662Z,27.32
2022-08-08T10:38:05.230Z,26.61
2022-08-08T10:39:07.161Z,25.87
2022-08-08T10:40:07.272Z,25.49
2022-08-08T10:41:04.619Z,24.91
2022-08-08T10:42:14.837Z,24.53
2022-08-08T10:43:05.591Z,24.31
2022-08-08T10:44:04.583Z,24.32
2022-08-08T10:45:08.876Z,24.63
2022-08-08T10:46:04.547Z,25.79
2022-08-08T10:47:05.542Z,26.92
2022-08-08T10:48:04.564Z,27.84
2022-08-08T10:49:04.501Z,28.32
2022-08-08T10:50:04.773Z,28.82
2022-08-08T10:51:04.471Z,29.59
2022-08-08T10:52:04.467Z,29.78
2022-08-08T10:53:04.751Z,30.09
2022-08-08T10:54:04.533Z,29.71
2022-08-08T10:55:05.072Z,29.92
2022-08-08T10:56:04.429Z,30.46
2022-08-08T10:57:04.442Z,30.86
2022-08-08T10:58:05.791Z,30.75
2022-08-08T10:59:04.378Z,29.87
2022-08-08T11:00:04.404Z,30.11
2022-08-08T11:01:09.996Z,30.49
2022-08-08T11:02:05.465Z,30.94
2022-08-08T11:03:04.318Z,31.24
2022-08-08T11:04:04.583Z,31.39
2022-08-08T11:05:05.263Z,31.77
2022-08-08T11:06:04.297Z,31.87
2022-08-08T11:07:04.352Z,31.76
2022-08-08T11:08:31.885Z,31.24
2022-08-08T11:09:15.191Z,31.11
2022-08-08T11:10:05.240Z,31.43
2022-08-08T11:11:08.075Z,31.43
2022-08-08T11:12:14.097Z,31.96
2022-08-08T11:13:29.003Z,32.40
2022-08-08T11:14:05.171Z,32.37
2022-08-08T11:15:04.165Z,30.68
2022-08-08T11:16:07.769Z,29.20
2022-08-08T11:17:05.162Z,28.22
2022-08-08T11:18:04.120Z,26.91
2022-08-08T11:19:04.115Z,25.68
2022-08-08T11:20:10.898Z,24.88
2022-08-08T11:21:09.913Z,24.44
2022-08-08T11:22:05.086Z,24.22
2022-08-08T11:23:05.610Z,24.13
2022-08-08T11:24:04.128Z,24.02
2022-08-08T11:25:14.361Z,23.97
2022-08-08T11:26:05.015Z,24.00
2022-08-08T11:27:19.809Z,24.12
2022-08-08T11:28:05.000Z,24.38
2022-08-08T11:29:04.470Z,24.63
2022-08-08T11:30:18.790Z,24.92
2022-08-08T11:31:04.938Z,25.22
2022-08-08T11:32:03.928Z,25.52
2022-08-08T11:33:05.198Z,25.74
2022-08-08T11:34:24.459Z,25.67
2022-08-08T11:35:23.474Z,25.59
2022-08-08T11:36:04.870Z,25.62
2022-08-08T11:37:14.796Z,25.31
2022-08-08T11:38:36.836Z,25.17
2022-08-08T11:39:04.888Z,25.69
2022-08-08T11:40:04.890Z,26.24
2022-08-08T11:41:03.803Z,26.11
2022-08-08T11:42:03.796Z,26.28
2022-08-08T11:43:04.801Z,26.55
2022-08-08T11:44:03.880Z,27.43
2022-08-08T11:45:03.767Z,28.40
2022-08-08T11:46:14.036Z,29.13
2022-08-08T11:47:12.993Z,29.65
2022-08-08T11:48:05.459Z,30.11
2022-08-08T11:49:05.145Z,30.16
2022-08-08T11:50:03.684Z,29.90
2022-08-08T11:51:37.326Z,29.87
2022-08-08T11:52:04.669Z,29.81
2022-08-08T11:53:06.103Z,29.52
2022-08-08T11:54:04.093Z,29.50
2022-08-08T11:55:03.619Z,29.55
2022-08-08T11:56:03.607Z,29.47
2022-08-08T11:57:03.614Z,29.45
2022-08-08T11:58:14.240Z,29.18
2022-08-08T11:59:04.623Z,29.10
2022-08-08T12:00:05.350Z,28.78
2022-08-08T12:01:03.543Z,28.36
2022-08-08T12:02:28.584Z,27.80
2022-08-08T12:03:04.564Z,28.09
2022-08-08T12:04:03.640Z,28.58
2022-08-08T12:05:03.507Z,29.25
2022-08-08T12:06:03.487Z,29.90
2022-08-08T12:07:03.875Z,30.08
2022-08-08T12:08:04.224Z,29.97
2022-08-08T12:09:03.449Z,30.09
2022-08-08T12:10:08.795Z,30.27
2022-08-08T12:11:04.421Z,30.76
2022-08-08T12:12:03.400Z,29.78
2022-08-08T12:13:03.381Z,29.37
2022-08-08T12:14:04.558Z,29.38
2022-08-08T12:15:03.358Z,29.37
2022-08-08T12:16:03.338Z,29.71
2022-08-08T12:17:03.345Z,29.23
2022-08-08T12:18:03.320Z,28.95
2022-08-08T12:19:05.990Z,29.29
2022-08-08T12:20:03.328Z,28.85
2022-08-08T12:21:03.281Z,28.03
2022-08-08T12:22:08.779Z,28.35
2022-08-08T12:25:32.014Z,29.04
2022-08-08T12:25:38.383Z,29.63
2022-08-08T12:26:37.702Z,29.74
2022-08-08T12:29:42.435Z,29.53
2022-08-08T12:29:50.243Z,29.43
2022-08-08T12:32:09.445Z,29.59
2022-08-08T12:32:20.133Z,31.17
2022-08-08T12:33:15.376Z,32.06
2022-08-08T12:34:14.379Z,31.93
2022-08-08T12:35:18.114Z,32.22
2022-08-08T12:36:49.414Z,31.82
2022-08-08T12:37:14.333Z,31.30
2022-08-08T12:38:17.787Z,31.91
2022-08-08T12:39:14.351Z,32.40
2022-08-08T12:40:22.481Z,32.71
2022-08-08T12:41:18.306Z,30.90
2022-08-08T12:42:21.440Z,29.74
2022-08-08T12:43:15.263Z,28.84
2022-08-08T12:44:32.186Z,28.69
2022-08-08T12:45:58.658Z,28.32
2022-08-08T12:46:19.086Z,28.11
2022-08-08T12:47:14.193Z,27.76
2022-08-08T12:48:36.731Z,27.10
2022-08-08T12:51:02.619Z,26.99
2022-08-08T12:51:10.818Z,29.62
2022-08-08T12:52:24.175Z,29.89
2022-08-08T12:53:08.426Z,30.03
2022-08-08T12:54:24.482Z,29.41
2022-08-08T12:55:09.365Z,29.16
2022-08-08T12:56:18.423Z,28.44
2022-08-08T12:57:08.499Z,28.03
2022-08-08T12:58:07.381Z,27.62
2022-08-08T12:59:07.340Z,27.54
2022-08-08T13:00:13.471Z,27.66
2022-08-08T13:01:08.362Z,27.43